Time;durP1;ratioP1;P1;durP2;ratioP2;P2;SDS_P1;SDS_P2;PMS_P1;PMS_P2;Temp;Humidity;BMP_temperature;BMP_pressure;BME280_temperature;BME280_humidity;BME280_pressure;Samples;Min_cycle;Max_cycle;Signal;HPM_P1;HPM_P2
2023/07/22 00:00:51;;;;;;;12.25;7.45;;;13.70;99.90;;;;;;6070916;23;20022;-83
2023/07/22 00:03:16;;;;;;;13.35;7.30;;;13.60;99.90;;;;;;6070874;23;20018;-83
2023/07/22 00:05:42;;;;;;;12.50;7.13;;;13.60;99.90;;;;;;6071347;23;20480;-83
2023/07/22 00:08:08;;;;;;;12.02;7.30;;;13.60;99.90;;;;;;6046749;23;21980;-83
2023/07/22 00:10:34;;;;;;;12.55;7.25;;;13.60;99.90;;;;;;6093418;23;20096;-83
2023/07/22 00:13:00;;;;;;;12.45;7.95;;;13.60;99.90;;;;;;6094210;23;20014;-83
2023/07/22 00:15:25;;;;;;;12.35;7.38;;;13.60;99.90;;;;;;6070988;23;20010;-83
2023/07/22 00:17:51;;;;;;;14.50;7.35;;;13.60;99.90;;;;;;6070177;23;20049;-83
2023/07/22 00:20:18;;;;;;;14.20;8.27;;;13.50;99.90;;;;;;6093909;23;20383;-83
2023/07/22 00:22:43;;;;;;;12.35;7.53;;;13.50;99.90;;;;;;6095301;23;20381;-84
2023/07/22 00:25:11;;;;;;;13.63;7.80;;;13.50;99.90;;;;;;6070778;23;20014;-83
2023/07/22 00:27:41;;;;;;;13.98;7.70;;;13.50;99.90;;;;;;6094927;23;20021;-83
2023/07/22 00:30:08;;;;;;;13.55;7.90;;;13.50;99.90;;;;;;6070693;23;20046;-84
2023/07/22 00:32:36;;;;;;;12.15;7.55;;;13.50;99.90;;;;;;6093369;23;20010;-83
2023/07/22 00:35:04;;;;;;;14.20;7.18;;;13.50;99.90;;;;;;6094937;23;20011;-83
2023/07/22 00:37:29;;;;;;;11.85;7.13;;;13.40;99.90;;;;;;6094574;23;20460;-83
2023/07/22 00:39:55;;;;;;;11.75;8.00;;;13.40;99.90;;;;;;6094643;23;20146;-83
2023/07/22 00:42:21;;;;;;;14.20;7.78;;;13.40;99.90;;;;;;6070652;23;20082;-83
2023/07/22 00:44:46;;;;;;;19.15;8.45;;;13.30;99.90;;;;;;6046438;23;20715;-83
2023/07/22 00:47:13;;;;;;;12.15;7.47;;;13.30;99.90;;;;;;6070996;23;20037;-84
2023/07/22 00:49:39;;;;;;;17.33;7.53;;;13.30;99.90;;;;;;6046199;23;20805;-83
2023/07/22 00:52:05;;;;;;;15.30;7.88;;;13.30;99.90;;;;;;6070754;23;20021;-83
2023/07/22 00:54:31;;;;;;;14.10;8.07;;;13.20;99.90;;;;;;6070803;23;20006;-83
2023/07/22 00:56:57;;;;;;;13.48;8.07;;;13.20;99.90;;;;;;6094549;23;20025;-84
2023/07/22 00:59:24;;;;;;;16.33;8.57;;;13.20;99.90;;;;;;6069605;23;20058;-83
2023/07/22 01:01:50;;;;;;;15.45;7.60;;;13.20;99.90;;;;;;6094059;23;20030;-83
2023/07/22 01:04:19;;;;;;;11.40;7.20;;;13.20;99.90;;;;;;6070523;23;20099;-84
2023/07/22 01:06:46;;;;;;;15.98;8.57;;;13.10;99.90;;;;;;6070853;23;20019;-83
2023/07/22 01:09:13;;;;;;;13.60;8.48;;;13.10;99.90;;;;;;6070835;23;20018;-83
2023/07/22 01:11:39;;;;;;;13.20;7.80;;;13.10;99.90;;;;;;6070880;23;20010;-84
2023/07/22 01:14:04;;;;;;;14.73;8.35;;;13.00;99.90;;;;;;6070154;23;20419;-83
2023/07/22 01:16:30;;;;;;;13.45;7.35;;;13.00;99.90;;;;;;6070180;23;20508;-84
2023/07/22 01:18:57;;;;;;;14.60;7.53;;;13.10;99.90;;;;;;6070598;23;20491;-84
2023/07/22 01:21:24;;;;;;;15.10;8.35;;;13.00;99.90;;;;;;6070444;23;20093;-84
2023/07/22 01:23:51;;;;;;;14.45;7.78;;;13.00;99.90;;;;;;6094908;23;20022;-83
2023/07/22 01:26:17;;;;;;;13.85;8.05;;;13.00;99.90;;;;;;6068981;23;20041;-84
2023/07/22 01:28:43;;;;;;;13.85;7.40;;;12.90;99.90;;;;;;6093073;23;20401;-84
2023/07/22 01:31:09;;;;;;;13.93;7.60;;;12.90;99.90;;;;;;6092675;23;20881;-83
2023/07/22 01:33:35;;;;;;;14.50;7.45;;;12.90;99.90;;;;;;6094538;23;20018;-83
2023/07/22 01:36:03;;;;;;;13.55;7.68;;;12.90;99.90;;;;;;6045811;23;20022;-83
2023/07/22 01:38:29;;;;;;;16.70;7.18;;;12.90;99.90;;;;;;6094035;23;20014;-83
2023/07/22 01:40:55;;;;;;;12.35;7.53;;;12.90;99.90;;;;;;6070070;23;20022;-82
2023/07/22 01:43:21;;;;;;;15.63;7.57;;;12.80;99.90;;;;;;6093864;23;20101;-83
2023/07/22 01:45:47;;;;;;;11.40;7.35;;;12.80;99.90;;;;;;6094064;23;20050;-83
2023/07/22 01:48:13;;;;;;;13.32;7.72;;;12.70;99.90;;;;;;6070354;23;20018;-83
2023/07/22 01:50:38;;;;;;;13.57;7.22;;;12.70;99.90;;;;;;6069795;23;20050;-83
2023/07/22 01:53:05;;;;;;;16.05;7.65;;;12.70;99.90;;;;;;6046034;23;20021;-83
2023/07/22 01:55:32;;;;;;;11.65;7.10;;;12.70;99.90;;;;;;6094419;23;20011;-83
2023/07/22 01:57:58;;;;;;;11.13;7.30;;;12.60;99.90;;;;;;6093796;23;20487;-83
2023/07/22 02:00:23;;;;;;;12.32;7.07;;;12.60;99.90;;;;;;6093128;23;20015;-83
2023/07/22 02:02:49;;;;;;;13.63;6.65;;;12.50;99.90;;;;;;6093745;23;20019;-83
2023/07/22 02:05:15;;;;;;;12.13;7.60;;;12.50;99.90;;;;;;6070132;23;20022;-84
2023/07/22 02:07:40;;;;;;;11.10;7.35;;;12.40;99.90;;;;;;6093939;23;20046;-84
2023/07/22 02:10:08;;;;;;;15.20;7.45;;;12.40;99.90;;;;;;6094058;23;20019;-83
2023/07/22 02:12:34;;;;;;;12.32;7.63;;;12.30;99.90;;;;;;6068421;23;20369;-83
2023/07/22 02:14:59;;;;;;;13.02;7.65;;;12.30;99.90;;;;;;6069519;23;20018;-84
2023/07/22 02:17:25;;;;;;;14.20;7.72;;;12.30;99.90;;;;;;6045775;23;20022;-84
2023/07/22 02:19:51;;;;;;;13.27;8.23;;;12.30;99.90;;;;;;6069684;23;20445;-83
2023/07/22 02:22:17;;;;;;;13.85;8.25;;;12.30;99.90;;;;;;6093447;23;20018;-83
2023/07/22 02:24:43;;;;;;;15.35;8.40;;;12.30;99.90;;;;;;6046000;23;20090;-83
2023/07/22 02:27:08;;;;;;;15.38;8.65;;;12.30;99.90;;;;;;6093209;23;20058;-83
2023/07/22 02:29:34;;;;;;;12.38;8.02;;;12.30;99.90;;;;;;6045543;23;20029;-83
2023/07/22 02:32:01;;;;;;;15.18;8.70;;;12.20;99.90;;;;;;6070063;23;20019;-83
2023/07/22 02:34:27;;;;;;;14.38;8.52;;;12.20;99.90;;;;;;6046160;23;20014;-83
2023/07/22 02:36:52;;;;;;;13.23;8.05;;;12.20;99.90;;;;;;6045617;23;20034;-83
2023/07/22 02:39:18;;;;;;;15.00;8.50;;;12.20;99.90;;;;;;6069568;23;20018;-84
2023/07/22 02:41:44;;;;;;;12.90;8.02;;;12.10;99.90;;;;;;6044732;23;20046;-83
2023/07/22 02:44:09;;;;;;;14.88;7.80;;;12.20;99.90;;;;;;6093371;23;20022;-84
2023/07/22 02:46:35;;;;;;;13.23;8.10;;;12.20;99.90;;;;;;6069444;23;20014;-84
2023/07/22 02:49:01;;;;;;;12.68;7.50;;;12.10;99.90;;;;;;6093571;23;20026;-84
2023/07/22 02:51:27;;;;;;;14.00;7.97;;;12.10;99.90;;;;;;6045841;23;20029;-83
2023/07/22 02:53:52;;;;;;;14.55;8.23;;;12.00;99.90;;;;;;6093368;23;20010;-83
2023/07/22 02:56:18;;;;;;;15.25;8.80;;;12.00;99.90;;;;;;6069400;23;20389;-83
2023/07/22 02:58:44;;;;;;;17.38;8.77;;;12.10;99.90;;;;;;6069331;23;20045;-83
2023/07/22 03:01:10;;;;;;;14.02;8.10;;;12.10;99.90;;;;;;6068230;23;20414;-84
2023/07/22 03:03:36;;;;;;;13.60;8.25;;;12.10;99.90;;;;;;6091871;23;20025;-83
2023/07/22 03:06:03;;;;;;;15.38;8.70;;;12.10;99.90;;;;;;6092087;23;20053;-84
2023/07/22 03:08:29;;;;;;;12.90;8.65;;;12.10;99.90;;;;;;6093208;23;20333;-83
2023/07/22 03:10:55;;;;;;;16.77;8.70;;;12.10;99.90;;;;;;6092159;23;20022;-83
2023/07/22 03:13:21;;;;;;;13.65;8.98;;;12.10;99.90;;;;;;6069212;23;20013;-84
2023/07/22 03:15:47;;;;;;;13.65;8.43;;;12.10;99.90;;;;;;6069620;23;20018;-84
2023/07/22 03:18:13;;;;;;;16.63;8.68;;;12.10;99.90;;;;;;6093704;23;20046;-84
2023/07/22 03:20:39;;;;;;;16.75;8.68;;;12.10;99.90;;;;;;6094599;23;20010;-84
2023/07/22 03:23:06;;;;;;;17.33;9.35;;;12.10;99.90;;;;;;6095105;23;20014;-83
2023/07/22 03:25:32;;;;;;;16.55;9.27;;;12.10;99.90;;;;;;6071083;23;20010;-83
2023/07/22 03:28:04;;;;;;;16.50;9.68;;;12.10;99.90;;;;;;6095564;23;20014;-84
2023/07/22 03:30:30;;;;;;;16.33;9.88;;;12.10;99.90;;;;;;6095188;23;20352;-84
2023/07/22 03:32:56;;;;;;;16.05;9.30;;;12.10;99.90;;;;;;6094208;23;20018;-84
2023/07/22 03:35:21;;;;;;;16.73;9.88;;;12.00;99.90;;;;;;6070343;23;20021;-83
2023/07/22 03:37:47;;;;;;;16.27;10.07;;;12.10;99.90;;;;;;6071153;23;20017;-84
2023/07/22 03:40:26;;;;;;;18.63;9.93;;;12.10;99.90;;;;;;6070772;23;20021;-84
2023/07/22 03:42:53;;;;;;;14.75;9.32;;;12.10;99.90;;;;;;6094400;23;20025;-84
2023/07/22 03:45:20;;;;;;;18.63;9.93;;;12.10;99.90;;;;;;6071502;23;20101;-84
2023/07/22 03:47:49;;;;;;;15.88;10.15;;;12.10;99.90;;;;;;6095179;23;20025;-83
2023/07/22 03:50:15;;;;;;;16.08;8.93;;;12.20;99.90;;;;;;6094417;23;20026;-83
2023/07/22 03:52:41;;;;;;;17.42;10.15;;;12.10;99.90;;;;;;6094798;23;20445;-84
2023/07/22 03:55:07;;;;;;;17.77;9.68;;;12.20;99.90;;;;;;6095484;23;20014;-83
2023/07/22 03:57:33;;;;;;;14.25;9.25;;;12.20;99.90;;;;;;6071461;23;20010;-83
2023/07/22 03:59:59;;;;;;;16.50;9.48;;;12.30;99.90;;;;;;6071370;23;20456;-83
2023/07/22 04:02:24;;;;;;;19.65;11.38;;;12.30;99.90;;;;;;6094003;23;20077;-84
2023/07/22 04:04:54;;;;;;;16.50;10.02;;;12.30;99.90;;;;;;6095098;23;20018;-83
2023/07/22 04:07:20;;;;;;;17.40;9.52;;;12.40;99.90;;;;;;6094805;23;20023;-83
2023/07/22 04:09:47;;;;;;;15.20;9.90;;;12.40;99.90;;;;;;6071547;23;20022;-83
2023/07/22 04:12:12;;;;;;;15.63;9.77;;;12.40;99.90;;;;;;6095355;23;20333;-83
2023/07/22 04:14:38;;;;;;;17.33;10.75;;;12.50;99.90;;;;;;6094507;23;20014;-83
2023/07/22 04:17:05;;;;;;;16.52;10.45;;;12.50;99.90;;;;;;6070586;23;20011;-84
2023/07/22 04:19:30;;;;;;;18.42;10.25;;;12.50;99.90;;;;;;6094027;23;20027;-84
2023/07/22 04:21:56;;;;;;;20.85;10.40;;;12.50;99.90;;;;;;6070029;23;20468;-84
2023/07/22 04:24:22;;;;;;;20.50;11.20;;;12.60;99.90;;;;;;6070858;23;20082;-84
2023/07/22 04:26:48;;;;;;;19.90;10.73;;;12.60;99.90;;;;;;6094600;23;20385;-84
2023/07/22 04:29:14;;;;;;;20.52;11.05;;;12.60;99.90;;;;;;6070837;23;20020;-84
2023/07/22 04:31:40;;;;;;;18.20;10.13;;;12.60;99.90;;;;;;6070026;23;20452;-84
2023/07/22 04:34:06;;;;;;;16.75;9.73;;;12.60;99.90;;;;;;6070829;23;20077;-84
2023/07/22 04:36:32;;;;;;;18.50;10.75;;;12.70;99.90;;;;;;6095147;23;20015;-84
2023/07/22 04:38:58;;;;;;;23.33;11.32;;;12.70;99.90;;;;;;6070534;23;20105;-84
2023/07/22 04:41:24;;;;;;;19.85;11.07;;;12.70;99.90;;;;;;6094289;23;20022;-84
2023/07/22 04:43:51;;;;;;;19.45;10.98;;;12.80;99.90;;;;;;6070646;23;20057;-84
2023/07/22 04:46:17;;;;;;;19.83;12.05;;;12.90;99.90;;;;;;6094801;23;20018;-83
2023/07/22 04:48:42;;;;;;;18.33;11.30;;;12.90;99.90;;;;;;6094795;23;20516;-84
2023/07/22 04:51:08;;;;;;;19.77;11.52;;;12.90;99.90;;;;;;6063863;23;20097;-83
2023/07/22 04:53:34;;;;;;;19.48;11.55;;;12.90;99.90;;;;;;6067543;23;20021;-83
2023/07/22 04:56:00;;;;;;;21.10;12.10;;;13.00;99.90;;;;;;6094023;23;20018;-83
2023/07/22 04:58:25;;;;;;;19.30;11.55;;;13.00;99.90;;;;;;6070807;23;20018;-84
2023/07/22 05:00:51;;;;;;;18.73;10.65;;;13.10;99.90;;;;;;6070060;23;20014;-83
2023/07/22 05:03:18;;;;;;;23.48;12.95;;;13.10;99.90;;;;;;6070415;23;20019;-83
2023/07/22 05:05:44;;;;;;;20.10;12.10;;;13.20;99.90;;;;;;6094111;23;20381;-84
2023/07/22 05:08:10;;;;;;;19.13;11.95;;;13.20;99.90;;;;;;6094630;23;20022;-84
2023/07/22 05:10:39;;;;;;;19.85;12.35;;;13.30;99.90;;;;;;6094833;23;20010;-83
2023/07/22 05:13:05;;;;;;;24.48;12.85;;;13.40;99.90;;;;;;6094068;23;20014;-84
2023/07/22 05:15:31;;;;;;;21.67;12.60;;;13.40;99.90;;;;;;6069861;23;20393;-84
2023/07/22 05:17:56;;;;;;;22.13;13.00;;;13.40;99.90;;;;;;6094005;23;20026;-83
2023/07/22 05:20:22;;;;;;;23.85;12.40;;;13.40;99.90;;;;;;6070385;23;20018;-83
2023/07/22 05:22:48;;;;;;;25.45;12.88;;;13.50;99.90;;;;;;6094482;23;20069;-83
2023/07/22 05:25:14;;;;;;;19.52;12.63;;;13.40;99.90;;;;;;6070559;23;20018;-84
2023/07/22 05:27:40;;;;;;;25.60;13.07;;;13.50;99.90;;;;;;6070593;23;20380;-83
2023/07/22 05:30:06;;;;;;;23.02;12.98;;;13.50;99.90;;;;;;6093540;23;20014;-83
2023/07/22 05:32:32;;;;;;;22.17;13.18;;;13.60;99.90;;;;;;6070200;23;20010;-83
2023/07/22 05:34:58;;;;;;;20.30;12.60;;;13.60;99.90;;;;;;6068943;23;20466;-83
2023/07/22 05:37:24;;;;;;;22.75;12.52;;;13.60;99.90;;;;;;6069258;23;20014;-84
2023/07/22 05:39:50;;;;;;;21.00;12.30;;;13.70;99.90;;;;;;6093519;23;20349;-83
2023/07/22 05:42:17;;;;;;;19.60;11.90;;;13.70;99.90;;;;;;6070220;23;20018;-84
2023/07/22 05:44:43;;;;;;;20.52;12.48;;;13.70;99.90;;;;;;6093838;23;20018;-84
2023/07/22 05:47:09;;;;;;;21.58;12.38;;;13.80;99.90;;;;;;6093906;23;20251;-83
2023/07/22 05:49:34;;;;;;;22.73;12.60;;;13.80;99.90;;;;;;6069517;23;20542;-84
2023/07/22 05:52:00;;;;;;;23.40;12.25;;;13.80;99.90;;;;;;6068879;23;20025;-84
2023/07/22 05:54:26;;;;;;;21.05;12.52;;;13.80;99.90;;;;;;6092188;23;20055;-83
2023/07/22 05:56:51;;;;;;;22.02;12.35;;;13.90;99.90;;;;;;6092504;23;20014;-84
2023/07/22 05:59:17;;;;;;;23.42;12.85;;;13.90;99.90;;;;;;6067725;23;20014;-83
2023/07/22 06:01:43;;;;;;;21.40;13.48;;;13.90;99.90;;;;;;6067484;23;20021;-84
2023/07/22 06:04:09;;;;;;;20.13;11.85;;;13.90;99.90;;;;;;6091235;23;20018;-84
2023/07/22 06:06:35;;;;;;;23.65;12.77;;;13.90;99.90;;;;;;6090514;23;20485;-83
2023/07/22 06:09:01;;;;;;;21.08;12.45;;;13.90;99.90;;;;;;6092095;23;20093;-83
2023/07/22 06:11:27;;;;;;;21.67;13.02;;;13.90;99.90;;;;;;6068831;23;20018;-83
2023/07/22 06:13:52;;;;;;;21.42;12.65;;;14.00;99.90;;;;;;6068547;23;20019;-83
2023/07/22 06:16:18;;;;;;;22.58;13.52;;;14.00;99.90;;;;;;6080203;23;20332;-84
2023/07/22 06:18:44;;;;;;;22.30;12.45;;;14.00;99.90;;;;;;6068840;23;20081;-84
2023/07/22 06:21:10;;;;;;;19.60;12.63;;;14.00;99.90;;;;;;6067643;23;20018;-83
2023/07/22 06:23:36;;;;;;;22.27;12.75;;;14.00;99.90;;;;;;6091262;23;20128;-83
2023/07/22 06:26:02;;;;;;;21.38;12.80;;;14.10;99.90;;;;;;6068008;23;20437;-84
2023/07/22 06:28:28;;;;;;;23.17;13.18;;;14.10;99.90;;;;;;6091142;23;20022;-84
2023/07/22 06:30:53;;;;;;;20.98;12.27;;;14.10;99.90;;;;;;6067875;23;20021;-84
2023/07/22 06:33:19;;;;;;;22.67;12.25;;;14.20;99.90;;;;;;6092190;23;20014;-83
2023/07/22 06:35:45;;;;;;;22.35;12.50;;;14.20;99.90;;;;;;6067779;23;20023;-83
2023/07/22 06:38:11;;;;;;;19.50;12.35;;;14.20;99.90;;;;;;6067083;23;20065;-83
2023/07/22 06:40:36;;;;;;;20.35;12.32;;;14.30;99.90;;;;;;6067715;23;20016;-84
2023/07/22 06:43:02;;;;;;;19.88;12.55;;;14.30;99.90;;;;;;6066158;23;20018;-83
2023/07/22 06:45:28;;;;;;;22.08;13.45;;;14.40;99.90;;;;;;6090889;23;20014;-84
2023/07/22 06:47:53;;;;;;;22.35;12.68;;;14.60;99.90;;;;;;6067528;23;20017;-83
2023/07/22 06:50:19;;;;;;;20.63;12.77;;;14.80;99.90;;;;;;6066494;23;20022;-82
2023/07/22 06:52:45;;;;;;;18.48;12.13;;;15.00;99.90;;;;;;6092043;23;20396;-83
2023/07/22 06:55:11;;;;;;;18.63;12.27;;;15.20;99.90;;;;;;6066528;23;20017;-83
2023/07/22 06:57:37;;;;;;;17.70;11.88;;;15.30;99.90;;;;;;6092575;23;20037;-83
2023/07/22 07:00:05;;;;;;;21.67;11.98;;;15.40;99.90;;;;;;6067716;23;20069;-84
2023/07/22 07:02:30;;;;;;;22.73;12.30;;;15.40;99.90;;;;;;6089389;23;20014;-84
2023/07/22 07:04:56;;;;;;;19.08;11.10;;;15.50;99.90;;;;;;6088370;23;20033;-83
2023/07/22 07:07:22;;;;;;;19.60;11.10;;;15.50;99.90;;;;;;6064124;23;20022;-83
2023/07/22 07:09:48;;;;;;;18.67;11.57;;;15.50;99.90;;;;;;6064659;23;20305;-82
2023/07/22 07:12:13;;;;;;;19.05;12.13;;;15.50;99.90;;;;;;6090722;23;20014;-84
2023/07/22 07:14:39;;;;;;;21.40;12.40;;;15.50;99.90;;;;;;6067904;23;20014;-83
2023/07/22 07:17:05;;;;;;;19.67;12.68;;;15.50;99.90;;;;;;6066737;23;20037;-85
2023/07/22 07:19:31;;;;;;;19.05;12.80;;;15.50;99.90;;;;;;6090968;23;20177;-83
2023/07/22 07:21:56;;;;;;;20.85;13.63;;;15.50;99.90;;;;;;6068285;23;20077;-84
2023/07/22 07:24:22;;;;;;;21.25;13.50;;;15.50;99.90;;;;;;6066893;23;20014;-84
2023/07/22 07:26:48;;;;;;;21.40;12.85;;;15.60;99.90;;;;;;6066904;23;20408;-84
2023/07/22 07:29:14;;;;;;;23.52;14.25;;;15.70;99.90;;;;;;6091771;23;20628;-84
2023/07/22 07:31:39;;;;;;;23.45;13.98;;;15.70;99.90;;;;;;6068175;23;20369;-84
2023/07/22 07:34:05;;;;;;;21.10;13.35;;;15.80;99.90;;;;;;6090888;23;20025;-83
2023/07/22 07:36:34;;;;;;;24.27;13.40;;;15.80;99.90;;;;;;6090840;23;20043;-83
2023/07/22 07:39:00;;;;;;;19.65;12.82;;;15.80;99.90;;;;;;6066433;23;20401;-83
2023/07/22 07:41:25;;;;;;;21.45;13.50;;;15.80;99.90;;;;;;6091497;23;20053;-84
2023/07/22 07:43:51;;;;;;;22.08;13.43;;;15.80;99.90;;;;;;6069545;23;20018;-84
2023/07/22 07:46:21;;;;;;;20.35;12.82;;;15.80;99.90;;;;;;6066321;23;20053;-84
2023/07/22 07:48:50;;;;;;;20.27;13.02;;;15.90;99.90;;;;;;6092608;23;20041;-83
2023/07/22 07:51:17;;;;;;;21.05;13.02;;;16.00;99.90;;;;;;6091576;23;20019;-84
2023/07/22 07:53:44;;;;;;;20.15;12.43;;;16.10;99.90;;;;;;6091826;23;20007;-83
2023/07/22 07:56:11;;;;;;;20.60;12.35;;;16.30;99.90;;;;;;6091176;23;20053;-83
2023/07/22 07:58:37;;;;;;;18.98;12.52;;;16.50;99.90;;;;;;6093139;23;20074;-84
2023/07/22 08:01:03;;;;;;;18.17;13.40;;;16.60;99.90;;;;;;6092358;23;20015;-81
2023/07/22 08:03:30;;;;;;;18.58;12.35;;;16.60;99.90;;;;;;6094033;23;20118;-83
2023/07/22 08:05:55;;;;;;;16.90;11.32;;;16.80;99.90;;;;;;6093769;23;20010;-83
2023/07/22 08:08:22;;;;;;;18.05;12.23;;;16.90;99.90;;;;;;6071299;23;20511;-82
2023/07/22 08:10:56;;;;;;;14.80;10.43;;;17.00;99.90;;;;;;6093940;23;20029;-83
2023/07/22 08:13:26;;;;;;;17.10;11.70;;;17.10;99.90;;;;;;6093975;23;20022;-82
2023/07/22 08:15:52;;;;;;;18.85;12.38;;;17.20;99.90;;;;;;6070909;23;20048;-82
2023/07/22 08:18:18;;;;;;;16.80;11.50;;;17.20;99.90;;;;;;6068252;23;20089;-83
2023/07/22 08:20:47;;;;;;;23.23;12.82;;;17.20;99.90;;;;;;6070390;23;20113;-81
2023/07/22 08:23:12;;;;;;;18.80;11.35;;;17.10;99.90;;;;;;6095059;23;20011;-82
2023/07/22 08:25:38;;;;;;;20.33;12.90;;;17.00;99.90;;;;;;6069694;23;20011;-82
2023/07/22 08:28:04;;;;;;;18.33;12.10;;;17.00;99.90;;;;;;6117116;23;20037;-82
2023/07/22 08:30:29;;;;;;;17.80;12.18;;;17.10;99.90;;;;;;6093868;23;20098;-82
2023/07/22 08:32:55;;;;;;;19.35;12.27;;;17.10;99.90;;;;;;6070394;23;20023;-81
2023/07/22 08:35:22;;;;;;;19.50;13.55;;;17.10;99.90;;;;;;6069065;23;20508;-82
2023/07/22 08:37:48;;;;;;;20.45;12.82;;;17.30;99.90;;;;;;6070834;23;20018;-82
2023/07/22 08:40:13;;;;;;;18.98;13.27;;;17.20;99.90;;;;;;6069107;23;20025;-81
2023/07/22 08:42:41;;;;;;;20.60;12.85;;;17.30;99.90;;;;;;6069411;23;20018;-82
2023/07/22 08:45:11;;;;;;;18.52;12.73;;;17.30;99.90;;;;;;6093070;23;20033;-82
2023/07/22 08:47:47;;;;;;;20.85;12.48;;;17.40;99.90;;;;;;6093757;23;20021;-82
2023/07/22 08:50:18;;;;;;;21.50;13.13;;;17.30;99.90;;;;;;6094531;23;20011;-82
2023/07/22 08:52:45;;;;;;;18.80;12.60;;;17.30;99.90;;;;;;6093487;23;20444;-81
2023/07/22 08:55:11;;;;;;;17.73;12.85;;;17.20;99.90;;;;;;6093926;23;20017;-83
2023/07/22 08:57:38;;;;;;;21.48;13.45;;;17.20;99.90;;;;;;6094863;23;20022;-82
2023/07/22 09:00:06;;;;;;;20.63;12.82;;;17.10;99.90;;;;;;6070804;23;20022;-83
2023/07/22 09:02:33;;;;;;;19.80;12.20;;;17.10;99.90;;;;;;6094705;23;20050;-82
2023/07/22 09:04:59;;;;;;;17.77;12.52;;;17.10;99.90;;;;;;6070461;23;20053;-82
2023/07/22 09:07:25;;;;;;;17.30;11.95;;;17.10;99.90;;;;;;6094719;23;20049;-83
2023/07/22 09:09:53;;;;;;;17.27;12.10;;;17.20;99.90;;;;;;6094525;23;20024;-82
2023/07/22 09:12:20;;;;;;;18.85;12.48;;;17.20;99.90;;;;;;6094091;23;20010;-82
2023/07/22 09:14:48;;;;;;;17.80;11.48;;;17.10;99.90;;;;;;6094503;23;20539;-82
2023/07/22 09:17:13;;;;;;;15.82;10.48;;;17.10;99.90;;;;;;6094151;23;20015;-83
2023/07/22 09:19:39;;;;;;;17.42;9.93;;;17.10;99.90;;;;;;6069729;23;20018;-81
2023/07/22 09:22:05;;;;;;;14.02;9.73;;;17.10;99.90;;;;;;6093603;23;20198;-82
2023/07/22 09:24:31;;;;;;;13.93;10.38;;;17.00;99.90;;;;;;6093875;23;20018;-82
2023/07/22 09:26:58;;;;;;;13.50;9.38;;;17.00;99.90;;;;;;6069735;23;20029;-83
2023/07/22 09:29:35;;;;;;;14.88;9.45;;;17.00;99.90;;;;;;6093238;23;20043;-82
2023/07/22 09:32:01;;;;;;;16.92;10.43;;;17.00;99.90;;;;;;6093965;23;20018;-81
2023/07/22 09:34:29;;;;;;;12.43;9.27;;;17.00;99.90;;;;;;6094243;23;20017;-83
2023/07/22 09:36:56;;;;;;;12.95;8.68;;;17.00;99.90;;;;;;6094426;23;20011;-82
2023/07/22 09:39:23;;;;;;;13.48;9.32;;;17.00;99.90;;;;;;6094324;23;20333;-83
2023/07/22 09:41:50;;;;;;;14.18;10.35;;;17.00;99.90;;;;;;6094304;23;20025;-82
2023/07/22 09:44:16;;;;;;;16.77;10.48;;;17.00;99.90;;;;;;6070314;23;20018;-82
2023/07/22 09:46:46;;;;;;;16.42;9.82;;;17.00;99.90;;;;;;6069517;23;20019;-81
2023/07/22 09:49:12;;;;;;;15.95;9.98;;;17.00;99.90;;;;;;6070023;23;20014;-82
2023/07/22 09:51:39;;;;;;;14.20;8.68;;;17.10;99.90;;;;;;6093207;23;20388;-82
2023/07/22 09:54:06;;;;;;;14.50;8.60;;;17.10;99.90;;;;;;6093457;23;20398;-82
2023/07/22 09:56:45;;;;;;;10.63;6.28;;;17.20;99.90;;;;;;6092721;23;20089;-82
2023/07/22 09:59:11;;;;;;;9.75;5.90;;;17.10;99.90;;;;;;6093039;23;20014;-82
2023/07/22 10:01:42;;;;;;;6.57;4.60;;;17.10;99.90;;;;;;6069430;23;20041;-81
2023/07/22 10:04:10;;;;;;;7.10;4.82;;;17.10;99.90;;;;;;6093385;23;20395;-83
2023/07/22 10:06:36;;;;;;;8.00;5.13;;;17.00;99.90;;;;;;6069959;23;20029;-83
2023/07/22 10:09:10;;;;;;;9.32;5.40;;;17.00;99.90;;;;;;6069888;23;20022;-83
2023/07/22 10:11:36;;;;;;;5.97;3.90;;;17.00;99.90;;;;;;6093483;23;20025;-82
2023/07/22 10:14:02;;;;;;;6.25;4.05;;;17.00;99.90;;;;;;6093778;23;20015;-82
2023/07/22 10:16:28;;;;;;;5.97;4.38;;;17.00;99.90;;;;;;6094033;23;20018;-82
2023/07/22 10:18:55;;;;;;;5.97;4.72;;;17.10;99.90;;;;;;6070201;23;20439;-81
2023/07/22 10:21:21;;;;;;;7.47;5.63;;;17.10;99.90;;;;;;6093451;23;20041;-81
2023/07/22 10:23:48;;;;;;;6.38;4.88;;;17.20;99.90;;;;;;6070132;23;20022;-81
2023/07/22 10:26:19;;;;;;;7.35;4.97;;;17.20;99.90;;;;;;6093352;23;20041;-82
2023/07/22 10:28:48;;;;;;;8.00;5.38;;;17.20;99.90;;;;;;6093281;23;20052;-82
2023/07/22 10:31:18;;;;;;;7.13;5.22;;;17.20;99.90;;;;;;6093670;23;20095;-82
2023/07/22 10:33:48;;;;;;;8.70;4.75;;;17.20;99.90;;;;;;6071046;23;20097;-82
2023/07/22 10:36:15;;;;;;;6.50;4.43;;;17.30;99.90;;;;;;6093095;23;20022;-83
2023/07/22 10:38:41;;;;;;;5.15;3.97;;;17.30;99.90;;;;;;6092600;23;20493;-82
2023/07/22 10:41:19;;;;;;;5.47;4.00;;;17.30;99.90;;;;;;6092896;23;20018;-83
2023/07/22 10:43:59;;;;;;;4.75;3.47;;;17.20;99.90;;;;;;6093847;23;20072;-82
2023/07/22 10:46:39;;;;;;;4.68;3.30;;;17.20;99.90;;;;;;6093753;23;20025;-82
2023/07/22 10:49:16;;;;;;;6.15;3.30;;;17.20;99.90;;;;;;6093574;23;20025;-82
2023/07/22 10:51:51;;;;;;;4.80;3.15;;;17.20;99.90;;;;;;6093335;23;20029;-83
2023/07/22 10:54:33;;;;;;;5.30;3.40;;;17.10;99.90;;;;;;6070360;23;20025;-83
2023/07/22 10:57:26;;;;;;;4.20;3.72;;;17.10;99.90;;;;;;6093911;23;20010;-83
2023/07/22 10:59:52;;;;;;;4.75;4.18;;;17.10;99.90;;;;;;6070299;23;20018;-83
2023/07/22 11:02:46;;;;;;;5.85;4.43;;;17.00;99.90;;;;;;6094075;23;20014;-82
2023/07/22 11:05:16;;;;;;;6.00;4.13;;;17.00;99.90;;;;;;6095993;23;20078;-83
2023/07/22 11:07:43;;;;;;;6.18;3.85;;;17.00;99.90;;;;;;6071192;23;20018;-83
2023/07/22 11:10:16;;;;;;;5.50;3.90;;;17.00;99.90;;;;;;6093217;23;20021;-83
2023/07/22 11:12:44;;;;;;;7.80;5.43;;;17.00;99.90;;;;;;6093862;23;20018;-83
2023/07/22 11:15:10;;;;;;;8.48;5.15;;;16.90;99.90;;;;;;6070488;23;20015;-83
2023/07/22 11:17:37;;;;;;;8.38;5.70;;;16.90;99.90;;;;;;6093946;23;20017;-83
2023/07/22 11:20:03;;;;;;;7.00;5.30;;;16.90;99.90;;;;;;6070283;23;20022;-83
2023/07/22 11:22:31;;;;;;;9.88;6.35;;;16.80;99.90;;;;;;6070109;23;20014;-83
2023/07/22 11:25:00;;;;;;;9.52;6.40;;;16.80;99.90;;;;;;6070230;23;20020;-84
2023/07/22 11:27:26;;;;;;;10.18;6.13;;;16.70;99.90;;;;;;6093458;23;20077;-83
2023/07/22 11:29:52;;;;;;;8.15;6.13;;;16.60;99.90;;;;;;6093094;23;20089;-84
2023/07/22 11:32:21;;;;;;;6.47;5.03;;;16.50;99.90;;;;;;6093529;23;20026;-84
2023/07/22 11:34:46;;;;;;;6.65;4.90;;;16.50;99.90;;;;;;6093556;23;20014;-84
2023/07/22 11:37:13;;;;;;;8.73;5.88;;;16.40;99.90;;;;;;6069849;23;20094;-85
2023/07/22 11:39:41;;;;;;;10.07;5.57;;;16.40;99.90;;;;;;6069205;23;20069;-85
2023/07/22 11:42:07;;;;;;;11.65;7.55;;;16.30;99.90;;;;;;6094074;23;20073;-85
2023/07/22 11:44:33;;;;;;;12.85;8.00;;;16.20;99.90;;;;;;6095810;23;20019;-86
2023/07/22 11:47:04;;;;;;;11.10;8.50;;;16.10;99.90;;;;;;6095544;23;20077;-86
2023/07/22 11:49:35;;;;;;;14.43;8.45;;;16.00;99.90;;;;;;6095045;23;20019;-86
2023/07/22 11:52:09;;;;;;;14.50;9.07;;;15.90;99.90;;;;;;6095022;23;20026;-84
2023/07/22 11:54:38;;;;;;;15.77;8.70;;;15.70;99.90;;;;;;6071522;23;20029;-86
2023/07/22 11:57:21;;;;;;;17.15;11.02;;;15.70;99.90;;;;;;6094995;23;20015;-85
2023/07/22 11:59:55;;;;;;;10.00;7.18;;;15.80;99.90;;;;;;6095066;23;20022;-84
2023/07/22 12:02:26;;;;;;;10.52;8.55;;;15.70;99.90;;;;;;6095243;23;20014;-85
2023/07/22 12:04:54;;;;;;;10.18;7.82;;;15.80;99.90;;;;;;6072608;23;20018;-85
2023/07/22 12:07:28;;;;;;;11.48;7.57;;;15.70;99.90;;;;;;6095770;23;20019;-85
2023/07/22 12:09:56;;;;;;;9.77;7.72;;;15.80;99.90;;;;;;6095787;23;20015;-85
2023/07/22 12:12:31;;;;;;;11.45;7.60;;;15.70;99.90;;;;;;6094709;23;20089;-85
2023/07/22 12:15:15;;;;;;;9.50;7.40;;;15.70;99.90;;;;;;6094279;23;20045;-87
2023/07/22 12:18:00;;;;;;;8.82;6.80;;;15.70;99.90;;;;;;6094574;23;20125;-84
2023/07/22 12:20:28;;;;;;;7.80;6.72;;;15.80;99.90;;;;;;6094355;23;20018;-85
2023/07/22 12:22:54;;;;;;;8.00;6.68;;;15.80;99.90;;;;;;6094596;23;20332;-85
2023/07/22 12:25:20;;;;;;;7.63;6.40;;;15.90;99.90;;;;;;6071253;23;20520;-84
2023/07/22 12:27:46;;;;;;;10.10;6.90;;;16.00;99.90;;;;;;6094489;23;20021;-84
2023/07/22 12:30:12;;;;;;;10.10;7.65;;;16.00;99.90;;;;;;6070141;23;20025;-83
2023/07/22 12:32:38;;;;;;;10.15;8.05;;;16.10;99.90;;;;;;6094584;23;20432;-85